createdAt,value
2023-02-22T00:01:50.693Z,1.13
2023-02-22T00:04:21.292Z,1.35
2023-02-22T00:06:51.155Z,0.80
2023-02-22T00:09:20.733Z,0.85
2023-02-22T00:11:48.740Z,0.90
2023-02-22T00:14:15.905Z,1.40
2023-02-22T00:16:42.628Z,3.60
2023-02-22T00:19:10.574Z,1.10
2023-02-22T00:21:37.410Z,0.88
2023-02-22T00:24:22.800Z,9.45
2023-02-22T00:26:56.624Z,1.95
2023-02-22T00:29:26.757Z,0.90
2023-02-22T00:31:54.358Z,1.52
2023-02-22T00:34:25.436Z,1.70
2023-02-22T00:36:52.102Z,1.45
2023-02-22T00:39:18.912Z,2.00
2023-02-22T00:41:45.647Z,1.38
2023-02-22T00:44:13.552Z,2.45
2023-02-22T00:46:40.437Z,0.70
2023-02-22T00:49:07.121Z,1.35
2023-02-22T00:51:33.875Z,2.38
2023-02-22T00:54:00.862Z,4.90
2023-02-22T00:56:27.687Z,1.20
2023-02-22T00:58:54.578Z,0.73
2023-02-22T01:01:21.312Z,1.30
2023-02-22T01:03:48.173Z,2.25
2023-02-22T01:06:14.901Z,1.50
2023-02-22T01:08:47.600Z,0.63
2023-02-22T01:11:22.419Z,0.90
2023-02-22T01:13:51.447Z,0.70
2023-02-22T01:16:18.223Z,2.42
2023-02-22T01:18:44.904Z,2.88
2023-02-22T01:21:11.648Z,1.75
2023-02-22T01:23:38.362Z,1.80
2023-02-22T01:26:06.019Z,1.92
2023-02-22T01:28:36.923Z,1.30
2023-02-22T01:31:03.727Z,3.72
2023-02-22T01:33:31.732Z,1.70
2023-02-22T01:35:59.679Z,6.90
2023-02-22T01:38:26.674Z,1.05
2023-02-22T01:40:53.351Z,1.65
2023-02-22T01:43:24.678Z,1.33
2023-02-22T01:46:08.209Z,1.67
2023-02-22T01:49:02.980Z,2.97
2023-02-22T01:51:37.773Z,0.70
2023-02-22T01:54:10.690Z,0.45
2023-02-22T01:56:50.392Z,5.90
2023-02-22T01:59:18.332Z,3.00
2023-02-22T02:01:45.115Z,0.70
2023-02-22T02:04:25.556Z,0.98
2023-02-22T02:06:54.408Z,1.83
2023-02-22T02:09:39.828Z,3.13
2023-02-22T02:12:09.882Z,1.37
2023-02-22T02:14:40.447Z,0.70
2023-02-22T02:17:13.787Z,2.90
2023-02-22T02:20:08.546Z,0.40
2023-02-22T02:22:42.682Z,1.90
2023-02-22T02:25:33.393Z,0.90
2023-02-22T02:28:05.174Z,0.57
2023-02-22T02:31:06.017Z,1.85
2023-02-22T02:33:50.582Z,0.98
2023-02-22T02:36:31.552Z,0.88
2023-02-22T02:39:06.543Z,1.02
2023-02-22T02:41:42.741Z,0.47
2023-02-22T02:44:22.466Z,0.85
2023-02-22T02:46:59.240Z,2.35
2023-02-22T02:49:53.348Z,4.03
2023-02-22T02:52:23.790Z,1.23
2023-02-22T02:54:52.073Z,1.38
2023-02-22T02:57:18.792Z,1.25
2023-02-22T02:59:46.413Z,0.60
2023-02-22T03:02:38.002Z,1.92
2023-02-22T03:05:16.627Z,0.90
2023-02-22T03:08:10.895Z,0.70
2023-02-22T03:11:15.048Z,0.57
2023-02-22T03:13:56.011Z,2.70
2023-02-22T03:17:02.027Z,0.63
2023-02-22T03:19:45.900Z,1.13
2023-02-22T03:22:25.548Z,0.82
2023-02-22T03:25:14.759Z,1.05
2023-02-22T03:27:47.321Z,0.93
2023-02-22T03:30:27.695Z,1.38
2023-02-22T03:33:09.407Z,1.35
2023-02-22T03:35:45.055Z,1.37
2023-02-22T03:38:15.879Z,3.00
2023-02-22T03:40:48.443Z,1.35
2023-02-22T03:43:21.388Z,2.13
2023-02-22T03:45:50.682Z,1.85
2023-02-22T03:48:38.927Z,0.77
2023-02-22T03:51:06.262Z,1.13
2023-02-22T03:53:37.132Z,2.03
2023-02-22T03:56:10.622Z,1.08
2023-02-22T03:58:40.561Z,2.00
2023-02-22T04:01:07.360Z,2.90
2023-02-22T04:03:34.039Z,1.20
2023-02-22T04:06:00.789Z,0.83
2023-02-22T04:08:27.577Z,0.88
2023-02-22T04:10:54.221Z,0.88
2023-02-22T04:13:20.860Z,3.90
2023-02-22T04:15:47.570Z,2.53
2023-02-22T04:18:14.691Z,1.50
2023-02-22T04:20:41.422Z,0.93
2023-02-22T04:23:08.049Z,1.88
2023-02-22T04:25:34.724Z,1.85
2023-02-22T04:28:04.648Z,9.48
2023-02-22T04:30:31.314Z,1.20
2023-02-22T04:32:57.983Z,2.10
2023-02-22T04:35:24.675Z,2.10
2023-02-22T04:37:51.347Z,0.77
2023-02-22T04:40:21.207Z,1.55
2023-02-22T04:42:55.078Z,1.63
2023-02-22T04:45:21.751Z,2.20
2023-02-22T04:47:48.416Z,2.88
2023-02-22T04:50:16.628Z,1.60
2023-02-22T04:52:43.337Z,0.88
2023-02-22T04:55:10.237Z,2.83
2023-02-22T04:57:37.089Z,1.20
2023-02-22T05:00:05.873Z,1.00
2023-02-22T05:02:33.063Z,14.73
2023-02-22T05:04:59.815Z,1.42
2023-02-22T05:07:26.529Z,1.77
2023-02-22T05:09:53.384Z,1.35
2023-02-22T05:12:20.124Z,2.92
2023-02-22T05:14:46.826Z,2.50
2023-02-22T05:17:14.003Z,1.10
2023-02-22T05:19:43.634Z,0.90
2023-02-22T05:22:10.305Z,1.23
2023-02-22T05:24:37.108Z,0.90
2023-02-22T05:27:08.806Z,2.08
2023-02-22T05:29:35.460Z,1.40
2023-02-22T05:32:02.747Z,1.20
2023-02-22T05:34:29.520Z,1.20
2023-02-22T05:36:56.322Z,1.40
2023-02-22T05:39:23.563Z,1.40
2023-02-22T05:41:50.429Z,1.23
2023-02-22T05:44:17.397Z,1.30
2023-02-22T05:46:44.128Z,1.63
2023-02-22T05:49:13.704Z,3.80
2023-02-22T05:51:40.377Z,0.70
2023-02-22T05:54:07.235Z,1.98
2023-02-22T05:56:34.127Z,1.17
2023-02-22T05:59:00.852Z,1.50
2023-02-22T06:01:27.664Z,1.70
2023-02-22T06:03:54.411Z,1.10
2023-02-22T06:06:22.364Z,0.60
2023-02-22T06:08:49.574Z,1.20
2023-02-22T06:11:16.654Z,2.15
2023-02-22T06:13:50.426Z,0.88
2023-02-22T06:16:17.536Z,0.73
2023-02-22T06:18:44.254Z,1.73
2023-02-22T06:21:11.010Z,1.40
2023-02-22T06:23:37.652Z,0.75
2023-02-22T06:26:06.785Z,1.95
2023-02-22T06:28:33.490Z,0.80
2023-02-22T06:31:00.135Z,1.27
2023-02-22T06:33:26.914Z,1.25
2023-02-22T06:35:53.582Z,0.80
2023-02-22T06:38:25.322Z,0.40
2023-02-22T06:40:52.145Z,0.55
2023-02-22T06:43:21.326Z,0.80
2023-02-22T06:45:48.454Z,0.68
2023-02-22T06:48:15.208Z,1.50
2023-02-22T06:50:41.866Z,2.50
2023-02-22T06:53:09.802Z,1.80
2023-02-22T06:55:36.659Z,2.90
2023-02-22T06:58:05.009Z,1.58
2023-02-22T07:00:34.840Z,4.13
2023-02-22T07:03:03.725Z,1.13
2023-02-22T07:05:30.675Z,1.30
2023-02-22T07:08:06.588Z,3.30
2023-02-22T07:10:35.037Z,7.47
2023-02-22T07:13:03.482Z,1.65
2023-02-22T07:15:32.966Z,3.60
2023-02-22T07:18:00.482Z,1.95
2023-02-22T07:20:32.168Z,3.15
2023-02-22T07:23:02.186Z,2.97
2023-02-22T07:25:28.835Z,1.45
2023-02-22T07:27:55.604Z,1.07
2023-02-22T07:30:25.581Z,1.38
2023-02-22T07:32:53.992Z,3.60
2023-02-22T07:35:27.190Z,5.68
2023-02-22T07:37:55.950Z,2.15
2023-02-22T07:40:24.441Z,1.23
2023-02-22T07:42:58.058Z,1.13
2023-02-22T07:45:27.160Z,4.07
2023-02-22T07:47:53.964Z,4.38
2023-02-22T07:50:25.228Z,2.25
2023-02-22T07:53:02.045Z,1.52
2023-02-22T07:55:30.796Z,2.85
2023-02-22T07:58:00.034Z,2.25
2023-02-22T08:00:32.889Z,3.47
2023-02-22T08:03:03.994Z,3.53
2023-02-22T08:05:33.010Z,1.85
2023-02-22T08:07:59.750Z,1.83
2023-02-22T08:10:26.928Z,2.30
2023-02-22T08:12:55.675Z,3.38
2023-02-22T08:15:28.464Z,2.10
2023-02-22T08:17:56.511Z,1.67
2023-02-22T08:20:23.546Z,2.30
2023-02-22T08:22:50.463Z,1.98
2023-02-22T08:25:19.271Z,2.35
2023-02-22T08:27:46.535Z,2.38
2023-02-22T08:30:22.930Z,1.98
2023-02-22T08:32:51.246Z,2.43
2023-02-22T08:35:19.858Z,2.30
2023-02-22T08:37:48.977Z,4.72
2023-02-22T08:40:19.723Z,2.53
2023-02-22T08:42:46.422Z,4.00
2023-02-22T08:45:13.812Z,2.80
2023-02-22T08:47:41.223Z,4.33
2023-02-22T08:50:09.988Z,4.95
2023-02-22T08:52:36.713Z,4.10
2023-02-22T08:55:03.878Z,5.47
2023-02-22T08:57:31.749Z,5.00
2023-02-22T08:59:58.512Z,6.85
2023-02-22T09:02:25.176Z,9.75
2023-02-22T09:04:51.889Z,7.20
2023-02-22T09:07:19.092Z,5.18
2023-02-22T09:09:45.895Z,5.57
2023-02-22T09:12:12.702Z,10.45
2023-02-22T09:14:39.446Z,5.13
2023-02-22T09:17:06.186Z,4.17
2023-02-22T09:19:32.819Z,3.92
2023-02-22T09:22:00.099Z,3.47
2023-02-22T09:24:27.314Z,9.95
2023-02-22T09:26:56.701Z,4.15
2023-02-22T09:29:26.247Z,5.50
2023-02-22T09:31:55.175Z,6.30
2023-02-22T09:34:29.378Z,6.30
2023-02-22T09:36:57.946Z,5.30
2023-02-22T09:39:27.705Z,6.70
2023-02-22T09:41:55.190Z,6.30
2023-02-22T09:44:49.956Z,7.65
2023-02-22T09:47:20.461Z,5.05
2023-02-22T09:50:17.964Z,6.68
2023-02-22T09:52:53.987Z,7.22
2023-02-22T09:55:41.207Z,6.53
2023-02-22T09:58:33.473Z,9.10
2023-02-22T10:01:45.621Z,5.55
2023-02-22T10:04:23.834Z,7.80
2023-02-22T10:07:01.995Z,8.23
2023-02-22T10:09:30.323Z,6.73
2023-02-22T10:12:11.173Z,6.32
2023-02-22T10:15:16.018Z,6.40
2023-02-22T10:17:54.811Z,7.95
2023-02-22T10:20:30.681Z,8.27
2023-02-22T10:23:34.312Z,5.90
2023-02-22T10:26:25.390Z,2.53
2023-02-22T10:29:26.803Z,3.67
2023-02-22T10:32:00.405Z,4.18
2023-02-22T10:34:30.540Z,9.88
2023-02-22T10:37:03.195Z,6.20
2023-02-22T10:39:35.078Z,4.95
2023-02-22T10:42:08.103Z,4.75
2023-02-22T10:44:39.735Z,4.13
2023-02-22T10:47:09.584Z,4.95
2023-02-22T10:49:41.060Z,6.55
2023-02-22T10:52:26.349Z,10.30
2023-02-22T10:55:00.964Z,6.53
2023-02-22T10:57:33.760Z,12.45
2023-02-22T11:00:19.678Z,5.68
2023-02-22T11:02:56.118Z,9.05
2023-02-22T11:05:31.024Z,6.65
2023-02-22T11:08:22.719Z,4.70
2023-02-22T11:11:04.781Z,6.73
2023-02-22T11:13:37.214Z,7.37
2023-02-22T11:16:43.319Z,7.00
2023-02-22T11:19:16.050Z,4.25
2023-02-22T11:21:43.486Z,8.65
2023-02-22T11:24:14.296Z,6.18
2023-02-22T11:26:49.724Z,6.78
2023-02-22T11:29:38.092Z,6.10
2023-02-22T11:32:14.944Z,6.00
2023-02-22T11:34:45.233Z,7.00
2023-02-22T11:37:29.884Z,6.38
2023-02-22T11:40:22.668Z,6.18
2023-02-22T11:43:06.425Z,10.88
2023-02-22T11:45:33.220Z,6.83
2023-02-22T11:48:06.120Z,8.10
2023-02-22T11:51:02.773Z,8.07
2023-02-22T11:53:56.517Z,6.50
2023-02-22T11:56:46.942Z,8.75
2023-02-22T11:59:31.733Z,8.60
2023-02-22T12:02:30.466Z,7.38
2023-02-22T12:05:08.031Z,6.47
2023-02-22T12:07:48.931Z,5.47
2023-02-22T12:10:27.845Z,7.80
2023-02-22T12:13:22.238Z,5.45
2023-02-22T12:15:57.433Z,4.07
2023-02-22T12:18:55.779Z,6.35
2023-02-22T12:21:25.468Z,6.18
2023-02-22T12:24:26.534Z,9.77
2023-02-22T12:27:18.084Z,6.78
2023-02-22T12:29:52.576Z,10.02
2023-02-22T12:32:33.924Z,9.82
2023-02-22T12:35:10.202Z,6.77
2023-02-22T12:38:01.852Z,4.87
2023-02-22T12:40:41.420Z,4.82
2023-02-22T12:43:22.775Z,4.90
2023-02-22T12:45:58.001Z,7.07
2023-02-22T12:48:38.747Z,6.30
2023-02-22T12:51:19.367Z,6.95
2023-02-22T12:53:58.155Z,6.85
2023-02-22T12:56:31.613Z,4.87
2023-02-22T12:59:08.249Z,4.25
2023-02-22T13:01:40.534Z,7.07
2023-02-22T13:04:21.083Z,7.20
2023-02-22T13:07:20.798Z,4.78
2023-02-22T13:10:23.454Z,9.10
2023-02-22T13:13:18.946Z,3.80
2023-02-22T13:16:01.434Z,5.70
2023-02-22T13:18:41.362Z,5.75
2023-02-22T13:21:41.703Z,5.05
2023-02-22T13:24:30.597Z,7.30
2023-02-22T13:27:15.769Z,4.00
2023-02-22T13:29:47.133Z,5.18
2023-02-22T13:32:51.521Z,6.53
2023-02-22T13:35:35.075Z,4.32
2023-02-22T13:38:31.028Z,6.38
2023-02-22T13:41:12.253Z,5.70
2023-02-22T13:43:56.910Z,4.95
2023-02-22T13:46:53.175Z,6.32
2023-02-22T13:49:40.813Z,8.40
2023-02-22T13:52:20.032Z,5.38
2023-02-22T13:54:54.898Z,4.63
2023-02-22T13:57:24.109Z,4.75
2023-02-22T14:00:18.311Z,5.72
2023-02-22T14:03:13.871Z,6.45
2023-02-22T14:05:44.733Z,5.47
2023-02-22T14:08:17.193Z,5.93
2023-02-22T14:10:43.825Z,7.93
2023-02-22T14:13:11.227Z,4.57
2023-02-22T14:15:57.892Z,5.78
2023-02-22T14:18:29.586Z,5.03
2023-02-22T14:21:20.152Z,6.60
2023-02-22T14:23:52.064Z,7.93
2023-02-22T14:26:33.301Z,7.07
2023-02-22T14:29:08.672Z,13.10
2023-02-22T14:31:43.106Z,6.43
2023-02-22T14:34:15.320Z,6.32
2023-02-22T14:36:52.422Z,6.85
2023-02-22T14:39:51.259Z,9.77
2023-02-22T14:42:38.399Z,5.15
2023-02-22T14:45:09.477Z,7.68
2023-02-22T14:47:49.592Z,5.60
2023-02-22T14:50:27.966Z,6.38
2023-02-22T14:53:04.165Z,6.93
2023-02-22T14:55:33.202Z,6.97
2023-02-22T14:58:18.754Z,5.90
2023-02-22T15:00:48.710Z,4.83
2023-02-22T15:03:29.302Z,5.80
2023-02-22T15:05:59.629Z,3.95
2023-02-22T15:08:28.464Z,5.03
2023-02-22T15:10:55.452Z,7.40
2023-02-22T15:13:25.088Z,5.68
2023-02-22T15:16:08.016Z,6.47
2023-02-22T15:18:37.285Z,4.23
2023-02-22T15:21:16.285Z,4.70
2023-02-22T15:24:01.890Z,6.90
2023-02-22T15:26:37.341Z,6.72
2023-02-22T15:29:11.100Z,7.90
2023-02-22T15:31:40.070Z,4.47
2023-02-22T15:34:24.190Z,5.30
2023-02-22T15:36:57.619Z,4.43
2023-02-22T15:39:34.194Z,3.60
2023-02-22T15:42:10.573Z,8.32
2023-02-22T15:44:39.310Z,6.70
2023-02-22T15:47:07.024Z,6.70
2023-02-22T15:49:37.785Z,7.72
2023-02-22T15:52:08.193Z,7.78
2023-02-22T15:54:40.937Z,8.70
2023-02-22T15:57:07.936Z,6.20
2023-02-22T15:59:46.011Z,3.97
2023-02-22T16:02:42.266Z,5.65
2023-02-22T16:05:12.235Z,4.70
2023-02-22T16:07:46.864Z,4.78
2023-02-22T16:10:33.334Z,6.53
2023-02-22T16:13:11.151Z,5.50
2023-02-22T16:15:41.119Z,4.82
2023-02-22T16:18:24.377Z,5.55
2023-02-22T16:21:00.350Z,4.68
2023-02-22T16:23:27.942Z,5.28
2023-02-22T16:26:20.286Z,6.22
2023-02-22T16:28:51.912Z,7.20
2023-02-22T16:31:25.158Z,7.95
2023-02-22T16:33:53.914Z,7.40
2023-02-22T16:36:24.418Z,5.88
2023-02-22T16:38:51.813Z,6.68
2023-02-22T16:41:19.903Z,7.10
2023-02-22T16:43:50.806Z,7.20
2023-02-22T16:46:19.833Z,7.70
2023-02-22T16:48:46.824Z,5.05
2023-02-22T16:51:26.171Z,7.57
2023-02-22T16:53:56.343Z,9.82
2023-02-22T16:56:30.510Z,10.07
2023-02-22T16:59:00.893Z,5.95
2023-02-22T17:01:27.572Z,7.90
2023-02-22T17:03:54.294Z,5.10
2023-02-22T17:06:21.539Z,7.80
2023-02-22T17:08:51.911Z,6.38
2023-02-22T17:11:19.442Z,9.68
2023-02-22T17:13:51.546Z,4.63
2023-02-22T17:16:18.851Z,4.95
2023-02-22T17:18:45.963Z,6.07
2023-02-22T17:21:13.064Z,6.47
2023-02-22T17:23:39.941Z,6.90
2023-02-22T17:26:06.686Z,5.22
2023-02-22T17:28:33.424Z,5.32
2023-02-22T17:31:03.729Z,3.72
2023-02-22T17:33:32.882Z,5.70
2023-02-22T17:36:01.819Z,4.80
2023-02-22T17:38:30.237Z,9.23
2023-02-22T17:40:58.995Z,7.13
2023-02-22T17:43:27.812Z,10.10
2023-02-22T17:45:55.324Z,5.05
2023-02-22T17:48:24.222Z,4.72
2023-02-22T17:50:51.878Z,7.38
2023-02-22T17:53:24.294Z,5.45
2023-02-22T17:55:51.870Z,3.63
2023-02-22T17:58:18.902Z,4.70
2023-02-22T18:00:48.469Z,6.63
2023-02-22T18:03:21.518Z,5.07
2023-02-22T18:05:50.081Z,5.85
2023-02-22T18:08:17.303Z,7.90
2023-02-22T18:10:45.161Z,4.57
2023-02-22T18:13:17.897Z,3.17
2023-02-22T18:15:45.802Z,6.93
2023-02-22T18:18:13.297Z,4.85
2023-02-22T18:20:46.419Z,9.07
2023-02-22T18:23:16.129Z,5.45
2023-02-22T18:26:07.579Z,4.85
2023-02-22T18:28:36.535Z,3.53
2023-02-22T18:31:08.093Z,5.57
2023-02-22T18:33:34.832Z,4.35
2023-02-22T18:36:01.615Z,7.38
2023-02-22T18:38:34.262Z,6.80
2023-02-22T18:41:06.492Z,10.00
2023-02-22T18:43:36.972Z,4.77
2023-02-22T18:46:16.073Z,4.88
2023-02-22T18:48:43.830Z,6.05
2023-02-22T18:51:13.505Z,6.18
2023-02-22T18:53:46.632Z,6.03
2023-02-22T18:56:22.526Z,12.15
2023-02-22T18:58:53.730Z,5.05
2023-02-22T19:01:22.103Z,6.53
2023-02-22T19:03:49.072Z,6.53
2023-02-22T19:06:17.745Z,4.45
2023-02-22T19:08:45.749Z,7.03
2023-02-22T19:11:21.780Z,10.93
2023-02-22T19:13:53.081Z,12.00
2023-02-22T19:16:22.016Z,3.50
2023-02-22T19:18:52.247Z,4.47
2023-02-22T19:21:20.222Z,3.20
2023-02-22T19:23:48.285Z,7.15
2023-02-22T19:26:23.867Z,6.70
2023-02-22T19:28:52.688Z,3.95
2023-02-22T19:31:29.595Z,4.85
2023-02-22T19:34:03.867Z,5.07
2023-02-22T19:36:31.082Z,4.97
2023-02-22T19:39:02.860Z,6.30
2023-02-22T19:41:30.621Z,7.35
2023-02-22T19:44:01.601Z,9.18
2023-02-22T19:46:28.428Z,6.82
2023-02-22T19:48:55.504Z,10.20
2023-02-22T19:51:27.777Z,4.85
2023-02-22T19:54:02.665Z,8.52
2023-02-22T19:56:31.118Z,7.38
2023-02-22T19:59:13.321Z,9.00
2023-02-22T20:01:41.333Z,6.72
2023-02-22T20:04:09.817Z,5.00
2023-02-22T20:06:44.028Z,7.40
2023-02-22T20:09:19.117Z,6.77
2023-02-22T20:11:47.199Z,11.73
2023-02-22T20:14:20.549Z,7.70
2023-02-22T20:16:51.499Z,4.95
2023-02-22T20:19:18.322Z,4.70
2023-02-22T20:21:45.075Z,4.68
2023-02-22T20:24:14.916Z,5.30
2023-02-22T20:26:42.592Z,6.20
2023-02-22T20:29:10.963Z,7.43
2023-02-22T20:31:39.682Z,7.32
2023-02-22T20:34:07.232Z,8.57
2023-02-22T20:36:37.102Z,6.65
2023-02-22T20:39:13.321Z,9.15
2023-02-22T20:41:42.901Z,8.20
2023-02-22T20:44:13.523Z,8.45
2023-02-22T20:46:40.568Z,8.68
2023-02-22T20:49:08.884Z,7.03
2023-02-22T20:51:36.805Z,10.23
2023-02-22T20:54:03.951Z,7.60
2023-02-22T20:56:32.534Z,8.05
2023-02-22T20:59:02.332Z,5.15
2023-02-22T21:01:30.823Z,5.03
2023-02-22T21:04:06.259Z,5.25
2023-02-22T21:06:35.330Z,8.88
2023-02-22T21:09:06.512Z,9.18
2023-02-22T21:11:33.535Z,7.93
2023-02-22T21:14:01.542Z,6.22
2023-02-22T21:16:31.211Z,11.70
2023-02-22T21:19:01.430Z,6.47
2023-02-22T21:21:29.196Z,6.32
2023-02-22T21:23:57.794Z,4.47
2023-02-22T21:26:32.471Z,8.35
2023-02-22T21:29:04.905Z,4.68
2023-02-22T21:31:33.171Z,6.75
2023-02-22T21:34:00.336Z,9.27
2023-02-22T21:36:28.373Z,8.15
2023-02-22T21:39:00.454Z,4.93
2023-02-22T21:41:31.371Z,8.65
2023-02-22T21:44:01.660Z,5.82
2023-02-22T21:46:29.527Z,6.57
2023-02-22T21:48:58.438Z,7.07
2023-02-22T21:51:31.318Z,5.28
2023-02-22T21:54:03.223Z,5.50
2023-02-22T21:56:32.437Z,6.00
2023-02-22T21:59:06.070Z,4.40
2023-02-22T22:01:43.026Z,4.40
2023-02-22T22:04:09.708Z,6.28
2023-02-22T22:06:36.553Z,7.10
2023-02-22T22:09:15.215Z,8.80
2023-02-22T22:11:50.293Z,4.43
2023-02-22T22:14:18.808Z,7.20
2023-02-22T22:16:54.754Z,7.70
2023-02-22T22:19:22.730Z,7.18
2023-02-22T22:21:53.325Z,7.88
2023-02-22T22:24:21.524Z,5.93
2023-02-22T22:26:54.619Z,8.15
2023-02-22T22:29:26.616Z,5.75
2023-02-22T22:31:53.395Z,5.60
2023-02-22T22:34:20.662Z,6.65
2023-02-22T22:36:47.913Z,8.40
2023-02-22T22:39:14.601Z,8.18
2023-02-22T22:41:44.082Z,5.35
2023-02-22T22:44:12.387Z,4.43
2023-02-22T22:46:39.717Z,7.07
2023-02-22T22:49:11.450Z,7.35
2023-02-22T22:51:40.935Z,6.38
2023-02-22T22:54:09.462Z,8.32
2023-02-22T22:56:37.778Z,5.40
2023-02-22T22:59:09.873Z,8.30
2023-02-22T23:01:40.411Z,4.45
2023-02-22T23:04:11.202Z,11.40
2023-02-22T23:06:43.709Z,4.65
2023-02-22T23:09:29.537Z,3.53
2023-02-22T23:12:08.665Z,6.47
2023-02-22T23:14:38.252Z,7.47
2023-02-22T23:17:15.056Z,7.32
2023-02-22T23:19:44.827Z,5.25
2023-02-22T23:22:14.045Z,4.93
2023-02-22T23:24:44.596Z,8.10
2023-02-22T23:27:12.225Z,5.23
2023-02-22T23:29:41.717Z,4.55
2023-02-22T23:32:09.124Z,5.53
2023-02-22T23:34:40.848Z,4.63
2023-02-22T23:37:10.180Z,5.70
2023-02-22T23:39:37.257Z,11.35
2023-02-22T23:42:09.959Z,3.28
2023-02-22T23:44:39.390Z,5.67
2023-02-22T23:47:06.123Z,8.63
2023-02-22T23:49:36.155Z,8.17
2023-02-22T23:52:04.199Z,11.63
2023-02-22T23:54:42.520Z,6.27
2023-02-22T23:57:09.806Z,5.05
2023-02-22T23:59:42.583Z,7.57
